createdAt,value
2019-03-31T00:01:51.127Z,14.20
2019-03-31T00:04:20.609Z,14.10
2019-03-31T00:06:50.009Z,14.10
2019-03-31T00:09:19.467Z,14.10
2019-03-31T00:11:49.023Z,14.10
2019-03-31T00:14:18.578Z,14.00
2019-03-31T00:16:48.155Z,14.00
2019-03-31T00:19:17.600Z,13.90
2019-03-31T00:21:47.044Z,13.90
2019-03-31T00:24:16.549Z,13.80
2019-03-31T00:26:46.031Z,13.80
2019-03-31T00:29:15.454Z,13.80
2019-03-31T00:31:44.908Z,13.80
2019-03-31T00:34:14.448Z,13.80
2019-03-31T00:36:43.867Z,13.70
2019-03-31T00:39:13.306Z,13.70
2019-03-31T00:41:42.844Z,13.70
2019-03-31T00:44:12.406Z,13.70
2019-03-31T00:46:41.971Z,13.70
2019-03-31T00:49:11.433Z,13.70
2019-03-31T00:51:40.942Z,13.70
2019-03-31T00:54:10.329Z,13.60
2019-03-31T00:56:39.962Z,13.60
2019-03-31T00:59:09.486Z,13.60
2019-03-31T01:02:04.819Z,13.60
2019-03-31T01:04:35.099Z,13.50
2019-03-31T01:07:04.609Z,13.60
2019-03-31T01:09:35.389Z,13.70
2019-03-31T01:12:05.439Z,13.80
2019-03-31T01:14:35.701Z,13.80
2019-03-31T01:17:08.590Z,13.90
2019-03-31T01:19:38.621Z,14.00
2019-03-31T01:22:08.114Z,13.90
2019-03-31T01:24:37.637Z,13.90
2019-03-31T01:27:09.484Z,13.90
2019-03-31T01:29:39.030Z,13.90
2019-03-31T01:32:08.849Z,13.90
2019-03-31T01:34:38.356Z,13.90
2019-03-31T01:37:07.904Z,13.90
2019-03-31T01:39:37.880Z,13.80
2019-03-31T01:42:07.292Z,13.80
2019-03-31T01:44:36.805Z,13.70
2019-03-31T01:47:07.007Z,13.80
2019-03-31T01:49:36.565Z,13.80
2019-03-31T01:52:06.110Z,13.80
2019-03-31T01:54:35.592Z,13.60
2019-03-31T01:57:05.175Z,13.60
2019-03-31T01:59:34.706Z,13.60
2019-03-31T02:02:04.905Z,13.70
2019-03-31T02:04:34.745Z,13.70
2019-03-31T02:07:06.148Z,13.70
2019-03-31T02:09:35.745Z,13.70
2019-03-31T02:12:05.304Z,13.70
2019-03-31T02:14:40.750Z,13.80
2019-03-31T02:17:10.255Z,13.80
2019-03-31T02:19:39.749Z,13.80
2019-03-31T02:22:09.201Z,13.90
2019-03-31T02:24:38.834Z,13.90
2019-03-31T02:27:08.270Z,13.90
2019-03-31T02:29:37.922Z,14.00
2019-03-31T02:32:22.468Z,14.00
2019-03-31T02:34:38.620Z,14.10
2019-03-31T02:37:08.121Z,14.00
2019-03-31T02:39:37.623Z,14.00
2019-03-31T02:42:07.054Z,14.00
2019-03-31T02:44:36.528Z,14.10
2019-03-31T02:47:05.936Z,14.10
2019-03-31T02:49:35.394Z,14.10
2019-03-31T02:52:04.970Z,14.00
2019-03-31T02:54:34.481Z,14.00
2019-03-31T02:57:04.204Z,14.00
2019-03-31T02:59:34.154Z,14.00
2019-03-31T03:02:03.714Z,14.00
2019-03-31T03:04:35.921Z,14.00
2019-03-31T03:07:06.073Z,14.00
2019-03-31T03:09:37.231Z,14.00
2019-03-31T03:12:09.418Z,14.10
2019-03-31T03:14:39.637Z,14.10
2019-03-31T03:17:09.081Z,14.00
2019-03-31T03:19:38.458Z,14.00
2019-03-31T03:22:08.008Z,14.00
2019-03-31T03:24:37.478Z,14.00
2019-03-31T03:27:06.870Z,14.00
2019-03-31T03:29:36.319Z,14.00
2019-03-31T03:32:05.835Z,14.00
2019-03-31T03:34:35.299Z,14.10
2019-03-31T03:37:04.795Z,14.10
2019-03-31T03:39:34.209Z,14.00
2019-03-31T03:42:03.743Z,13.90
2019-03-31T03:44:33.254Z,13.90
2019-03-31T03:47:02.706Z,13.80
2019-03-31T03:49:32.305Z,13.70
2019-03-31T03:52:01.701Z,13.70
2019-03-31T03:54:31.099Z,13.80
2019-03-31T03:57:00.650Z,13.80
2019-03-31T03:59:30.083Z,13.80
2019-03-31T04:01:59.475Z,13.80
2019-03-31T04:04:28.922Z,13.70
2019-03-31T04:06:58.305Z,13.80
2019-03-31T04:09:27.886Z,13.70
2019-03-31T04:11:57.255Z,13.70
2019-03-31T04:14:26.644Z,13.70
2019-03-31T04:16:56.079Z,13.70
2019-03-31T04:19:25.649Z,13.80
2019-03-31T04:21:55.093Z,13.70
2019-03-31T04:24:24.467Z,13.80
2019-03-31T04:26:53.886Z,13.80
2019-03-31T04:29:23.266Z,13.70
2019-03-31T04:31:52.680Z,13.70
2019-03-31T04:34:22.198Z,13.80
2019-03-31T04:36:51.662Z,13.80
2019-03-31T04:39:21.167Z,13.90
2019-03-31T04:41:50.565Z,13.80
2019-03-31T04:44:20.100Z,13.90
2019-03-31T04:46:49.577Z,13.80
2019-03-31T04:49:19.107Z,13.80
2019-03-31T04:51:48.585Z,13.90
2019-03-31T04:54:17.972Z,14.00
2019-03-31T04:56:47.337Z,14.00
2019-03-31T04:59:16.737Z,14.10
2019-03-31T05:01:46.146Z,14.10
2019-03-31T05:04:15.559Z,14.10
2019-03-31T05:06:45.081Z,14.00
2019-03-31T05:09:14.454Z,13.90
2019-03-31T05:11:43.961Z,13.80
2019-03-31T05:14:13.335Z,13.80
2019-03-31T05:16:42.789Z,13.80
2019-03-31T05:19:12.362Z,13.70
2019-03-31T05:21:41.798Z,13.70
2019-03-31T05:24:11.252Z,13.60
2019-03-31T05:26:40.726Z,13.50
2019-03-31T05:29:10.137Z,13.50
2019-03-31T05:31:39.517Z,13.40
2019-03-31T05:34:19.007Z,13.40
2019-03-31T05:36:40.078Z,13.40
2019-03-31T05:39:09.459Z,13.40
2019-03-31T05:41:38.956Z,13.40
2019-03-31T05:44:08.339Z,13.40
2019-03-31T05:46:37.762Z,13.50
2019-03-31T05:49:07.397Z,13.50
2019-03-31T05:51:36.959Z,13.50
2019-03-31T05:54:06.345Z,13.60
2019-03-31T05:56:35.803Z,13.60
2019-03-31T05:59:05.294Z,13.50
2019-03-31T06:01:34.703Z,13.50
2019-03-31T06:04:04.309Z,13.50
2019-03-31T06:06:36.886Z,13.50
2019-03-31T06:09:06.735Z,13.50
2019-03-31T06:11:36.271Z,13.50
2019-03-31T06:14:05.842Z,13.50
2019-03-31T06:16:35.404Z,13.50
2019-03-31T06:19:05.070Z,13.60
2019-03-31T06:21:39.568Z,13.60
2019-03-31T06:24:09.054Z,13.60
2019-03-31T06:26:40.412Z,13.60
2019-03-31T06:29:09.775Z,13.60
2019-03-31T06:31:39.229Z,13.60
2019-03-31T06:34:08.694Z,13.60
2019-03-31T06:36:38.170Z,13.70
2019-03-31T06:39:08.287Z,13.70
2019-03-31T06:41:37.765Z,13.70
2019-03-31T06:44:07.222Z,13.80
2019-03-31T06:46:36.669Z,13.80
2019-03-31T06:49:06.190Z,13.80
2019-03-31T06:51:35.597Z,13.70
2019-03-31T06:54:05.089Z,13.80
2019-03-31T06:56:34.546Z,13.90
2019-03-31T06:59:03.995Z,13.90
2019-03-31T07:01:33.390Z,13.80
2019-03-31T07:04:02.784Z,13.80
2019-03-31T07:06:32.149Z,13.80
2019-03-31T07:09:01.726Z,13.80
2019-03-31T07:11:31.170Z,13.90
2019-03-31T07:14:00.570Z,13.90
2019-03-31T07:16:29.933Z,14.00
2019-03-31T07:18:59.349Z,14.10
2019-03-31T07:21:28.725Z,14.10
2019-03-31T07:23:58.146Z,14.10
2019-03-31T07:26:27.526Z,14.10
2019-03-31T07:28:57.089Z,14.20
2019-03-31T07:31:26.528Z,14.30
2019-03-31T07:33:55.890Z,14.30
2019-03-31T07:36:25.314Z,14.30
2019-03-31T07:38:54.771Z,14.20
2019-03-31T07:41:24.496Z,14.10
2019-03-31T07:43:54.361Z,14.00
2019-03-31T07:46:23.877Z,14.00
2019-03-31T07:48:53.388Z,13.90
2019-03-31T07:51:23.089Z,14.00
2019-03-31T07:53:52.590Z,14.00
2019-03-31T07:56:21.993Z,14.00
2019-03-31T07:58:51.387Z,14.00
2019-03-31T08:01:20.862Z,13.90
2019-03-31T08:03:50.422Z,13.90
2019-03-31T08:06:19.926Z,14.00
2019-03-31T08:08:49.385Z,14.00
2019-03-31T08:11:18.914Z,14.00
2019-03-31T08:13:48.317Z,14.00
2019-03-31T08:16:17.824Z,14.00
2019-03-31T08:18:47.312Z,14.00
2019-03-31T08:21:16.723Z,14.00
2019-03-31T08:23:46.308Z,14.00
2019-03-31T08:26:15.766Z,14.00
2019-03-31T08:28:45.159Z,14.10
2019-03-31T08:31:14.646Z,14.20
2019-03-31T08:33:44.310Z,14.20
2019-03-31T08:36:13.780Z,14.20
2019-03-31T08:38:43.157Z,14.30
2019-03-31T08:41:12.550Z,14.30
2019-03-31T08:43:42.041Z,14.20
2019-03-31T08:46:11.531Z,14.20
2019-03-31T08:48:41.129Z,14.20
2019-03-31T08:51:10.524Z,14.20
2019-03-31T08:53:39.997Z,14.20
2019-03-31T08:56:09.399Z,14.20
2019-03-31T08:58:38.890Z,14.10
2019-03-31T09:01:12.252Z,14.10
2019-03-31T09:03:41.693Z,14.00
2019-03-31T09:06:11.090Z,14.00
2019-03-31T09:08:40.554Z,14.10
2019-03-31T09:11:10.082Z,14.20
2019-03-31T09:13:39.535Z,14.20
2019-03-31T09:16:08.989Z,14.30
2019-03-31T09:18:38.641Z,14.20
2019-03-31T09:21:08.105Z,14.20
2019-03-31T09:23:37.581Z,14.10
2019-03-31T09:26:06.998Z,14.20
2019-03-31T09:28:36.478Z,14.30
2019-03-31T09:31:06.082Z,14.20
2019-03-31T09:33:35.558Z,14.10
2019-03-31T09:36:16.035Z,14.10
2019-03-31T09:38:36.521Z,14.10
2019-03-31T09:41:06.069Z,14.20
2019-03-31T09:43:35.529Z,14.10
2019-03-31T09:48:39.510Z,14.10
2019-03-31T09:51:09.214Z,14.30
2019-03-31T09:53:41.067Z,14.40
2019-03-31T09:56:10.509Z,14.30
2019-03-31T09:58:40.078Z,14.50
2019-03-31T10:01:09.521Z,14.80
2019-03-31T10:03:38.994Z,15.10
2019-03-31T10:06:11.037Z,15.20
2019-03-31T10:08:40.268Z,15.80
2019-03-31T10:11:09.646Z,16.50
2019-03-31T10:13:39.217Z,17.00
2019-03-31T10:16:08.659Z,17.60
2019-03-31T10:18:38.055Z,18.00
2019-03-31T10:21:07.507Z,18.40
2019-03-31T10:23:37.050Z,18.70
2019-03-31T10:26:06.528Z,18.90
2019-03-31T10:28:35.963Z,19.30
2019-03-31T10:31:05.400Z,19.60
2019-03-31T10:33:34.994Z,19.90
2019-03-31T10:36:04.587Z,20.10
2019-03-31T10:38:33.977Z,20.40
2019-03-31T10:41:03.379Z,20.50
2019-03-31T10:43:32.771Z,20.60
2019-03-31T10:46:02.394Z,20.70
2019-03-31T10:48:31.800Z,20.80
2019-03-31T10:51:01.287Z,21.00
2019-03-31T10:53:30.729Z,21.00
2019-03-31T10:56:00.190Z,21.00
2019-03-31T10:58:29.622Z,21.10
2019-03-31T11:00:59.159Z,21.20
2019-03-31T11:03:28.526Z,21.20
2019-03-31T11:05:57.933Z,21.10
2019-03-31T11:08:27.391Z,21.20
2019-03-31T11:10:56.870Z,21.30
2019-03-31T11:13:26.273Z,21.40
2019-03-31T11:15:57.449Z,21.30
2019-03-31T11:18:26.843Z,21.00
2019-03-31T11:20:57.883Z,21.10
2019-03-31T11:23:28.466Z,21.30
2019-03-31T11:25:58.041Z,21.40
2019-03-31T11:28:27.493Z,21.40
2019-03-31T11:30:56.969Z,21.60
2019-03-31T11:33:26.336Z,21.70
2019-03-31T11:35:55.705Z,21.80
2019-03-31T11:38:25.153Z,21.80
2019-03-31T11:40:54.609Z,21.80
2019-03-31T11:43:24.149Z,21.70
2019-03-31T11:45:53.672Z,21.80
2019-03-31T11:48:23.055Z,21.50
2019-03-31T11:50:52.448Z,21.10
2019-03-31T11:53:21.848Z,21.00
2019-03-31T11:55:51.328Z,21.20
2019-03-31T11:58:20.782Z,21.30
2019-03-31T12:00:52.690Z,21.20
2019-03-31T12:03:22.118Z,21.00
2019-03-31T12:05:51.571Z,20.70
2019-03-31T12:08:23.087Z,20.50
2019-03-31T12:10:52.538Z,20.10
2019-03-31T12:13:21.914Z,19.90
2019-03-31T12:15:51.647Z,19.80
2019-03-31T12:18:21.055Z,19.70
2019-03-31T12:20:50.515Z,19.50
2019-03-31T12:23:19.900Z,19.40
2019-03-31T12:25:49.274Z,19.30
2019-03-31T12:28:18.705Z,19.20
2019-03-31T12:30:48.168Z,19.20
2019-03-31T12:33:17.533Z,19.10
2019-03-31T12:35:47.117Z,19.10
2019-03-31T12:38:16.563Z,19.00
2019-03-31T12:40:46.104Z,18.80
2019-03-31T12:43:15.465Z,18.70
2019-03-31T12:45:44.870Z,18.70
2019-03-31T12:48:14.383Z,18.70
2019-03-31T12:50:43.863Z,18.70
2019-03-31T12:53:13.231Z,18.60
2019-03-31T12:55:42.591Z,18.50
2019-03-31T12:58:12.526Z,18.40
2019-03-31T13:00:42.054Z,18.30
2019-03-31T13:03:11.454Z,18.20
2019-03-31T13:05:40.829Z,18.20
2019-03-31T13:08:10.385Z,18.30
2019-03-31T13:10:39.762Z,18.10
2019-03-31T13:13:09.141Z,18.00
2019-03-31T13:15:38.723Z,17.90
2019-03-31T13:18:08.253Z,17.90
2019-03-31T13:20:37.730Z,17.90
2019-03-31T13:23:07.172Z,17.80
2019-03-31T13:25:36.706Z,17.80
2019-03-31T13:28:06.277Z,17.70
2019-03-31T13:30:35.864Z,17.80
2019-03-31T13:33:05.419Z,17.70
2019-03-31T13:35:34.982Z,17.70
2019-03-31T13:38:10.821Z,17.80
2019-03-31T13:40:35.554Z,17.80
2019-03-31T13:43:05.466Z,17.70
2019-03-31T13:45:35.090Z,17.70
2019-03-31T13:48:04.841Z,17.60
2019-03-31T13:50:34.418Z,17.40
2019-03-31T13:53:03.853Z,17.20
2019-03-31T13:55:33.329Z,17.20
2019-03-31T13:58:03.777Z,17.10
2019-03-31T14:00:39.457Z,17.10
2019-03-31T14:03:09.317Z,17.10
2019-03-31T14:05:38.837Z,17.00
2019-03-31T14:08:08.740Z,16.90
2019-03-31T14:10:38.190Z,17.00
2019-03-31T14:13:07.730Z,17.00
2019-03-31T14:15:37.192Z,17.10
2019-03-31T14:18:06.703Z,17.10
2019-03-31T14:20:36.294Z,17.10
2019-03-31T14:23:05.755Z,17.10
2019-03-31T14:25:35.189Z,17.20
2019-03-31T14:28:04.745Z,17.20
2019-03-31T14:30:34.290Z,17.10
2019-03-31T14:33:03.662Z,17.00
2019-03-31T14:35:33.095Z,16.90
2019-03-31T14:38:02.618Z,16.90
2019-03-31T14:40:32.057Z,16.80
2019-03-31T14:43:01.477Z,16.80
2019-03-31T14:45:35.619Z,16.80
2019-03-31T14:48:05.646Z,16.80
2019-03-31T14:50:39.135Z,16.70
2019-03-31T14:53:09.045Z,16.60
2019-03-31T14:55:39.035Z,16.60
2019-03-31T14:58:08.722Z,16.70
2019-03-31T15:00:38.568Z,16.70
2019-03-31T15:03:08.080Z,16.60
2019-03-31T15:05:37.621Z,16.60
2019-03-31T15:08:07.574Z,16.60
2019-03-31T15:10:37.740Z,16.60
2019-03-31T15:13:07.199Z,16.60
2019-03-31T15:15:36.656Z,16.50
2019-03-31T15:18:06.345Z,16.50
2019-03-31T15:20:35.830Z,16.50
2019-03-31T15:23:05.455Z,16.40
2019-03-31T15:25:34.912Z,16.40
2019-03-31T15:28:04.661Z,16.40
2019-03-31T15:30:34.122Z,16.30
2019-03-31T15:33:03.606Z,16.20
2019-03-31T15:35:32.983Z,16.20
2019-03-31T15:38:02.454Z,16.20
2019-03-31T15:40:31.842Z,16.20
2019-03-31T15:43:01.286Z,16.10
2019-03-31T15:45:30.739Z,16.10
2019-03-31T15:48:00.259Z,16.10
2019-03-31T15:50:29.704Z,16.00
2019-03-31T15:52:59.206Z,16.00
2019-03-31T15:55:28.645Z,15.90
2019-03-31T15:57:58.016Z,15.90
2019-03-31T16:00:27.393Z,15.90
2019-03-31T16:02:56.844Z,15.90
2019-03-31T16:05:26.326Z,15.80
2019-03-31T16:07:55.182Z,15.80
2019-03-31T16:10:24.171Z,15.80
2019-03-31T16:12:53.066Z,15.70
2019-03-31T16:15:21.961Z,15.70
2019-03-31T16:17:50.888Z,15.70
2019-03-31T16:20:19.797Z,15.70
2019-03-31T16:22:48.788Z,15.70
2019-03-31T16:25:37.099Z,15.60
2019-03-31T16:28:05.993Z,15.60
2019-03-31T16:30:36.520Z,15.50
2019-03-31T16:33:07.144Z,15.60
2019-03-31T16:35:36.158Z,15.60
2019-03-31T16:38:05.126Z,15.50
2019-03-31T16:40:34.140Z,15.60
2019-03-31T16:43:02.989Z,15.50
2019-03-31T16:45:31.906Z,15.40
2019-03-31T16:48:00.741Z,15.40
2019-03-31T16:50:29.582Z,15.40
2019-03-31T16:52:58.590Z,15.50
2019-03-31T16:55:27.416Z,15.40
2019-03-31T16:57:56.353Z,15.40
2019-03-31T17:00:25.387Z,15.40
2019-03-31T17:02:54.284Z,15.40
2019-03-31T17:05:23.302Z,15.30
2019-03-31T17:07:52.151Z,15.30
2019-03-31T17:10:21.093Z,15.20
2019-03-31T17:12:49.948Z,15.20
2019-03-31T17:15:18.945Z,15.20
2019-03-31T17:17:47.869Z,15.20
2019-03-31T17:20:17.067Z,15.20
2019-03-31T17:22:46.041Z,15.20
2019-03-31T17:25:15.154Z,15.20
2019-03-31T17:27:44.102Z,15.20
2019-03-31T17:30:13.510Z,15.10
2019-03-31T17:32:42.355Z,15.10
2019-03-31T17:35:11.368Z,15.00
2019-03-31T17:37:40.325Z,14.90
2019-03-31T17:40:09.657Z,14.90
2019-03-31T17:42:38.581Z,14.90
2019-03-31T17:45:08.014Z,14.90
2019-03-31T17:47:37.025Z,14.80
2019-03-31T17:50:06.410Z,14.80
2019-03-31T17:52:35.272Z,14.80
2019-03-31T17:55:04.555Z,14.80
2019-03-31T17:57:33.567Z,14.70
2019-03-31T18:00:02.971Z,14.60
2019-03-31T18:02:31.792Z,14.60
2019-03-31T18:05:00.620Z,14.60
2019-03-31T18:07:29.474Z,14.60
2019-03-31T18:09:58.305Z,14.60
2019-03-31T18:12:27.242Z,14.60
2019-03-31T18:14:56.080Z,14.60
2019-03-31T18:17:25.002Z,14.50
2019-03-31T18:19:54.001Z,14.50
2019-03-31T18:22:22.862Z,14.40
2019-03-31T18:24:51.769Z,14.30
2019-03-31T18:27:20.597Z,14.30
2019-03-31T18:29:49.631Z,14.30
2019-03-31T18:32:18.874Z,14.30
2019-03-31T18:34:47.819Z,14.30
2019-03-31T18:37:16.652Z,14.20
2019-03-31T18:39:45.510Z,14.30
2019-03-31T18:42:14.419Z,14.30
2019-03-31T18:44:43.337Z,14.30
2019-03-31T18:47:12.249Z,14.20
2019-03-31T18:49:41.170Z,14.20
2019-03-31T18:52:10.101Z,14.10
2019-03-31T18:55:00.912Z,14.10
2019-03-31T18:57:40.849Z,14.00
2019-03-31T19:00:35.125Z,14.00
2019-03-31T19:03:13.169Z,14.00
2019-03-31T19:06:04.642Z,14.00
2019-03-31T19:08:48.718Z,13.90
2019-03-31T19:11:39.753Z,13.90
2019-03-31T19:14:21.947Z,13.90
2019-03-31T19:17:09.238Z,13.90
2019-03-31T19:19:47.490Z,13.80
2019-03-31T19:22:53.457Z,13.80
2019-03-31T19:25:52.144Z,13.80
2019-03-31T19:28:43.331Z,13.80
2019-03-31T19:31:34.158Z,13.80
2019-03-31T19:34:19.943Z,13.80
2019-03-31T19:36:59.282Z,13.80
2019-03-31T19:39:50.094Z,13.80
2019-03-31T19:42:30.218Z,13.80
2019-03-31T19:45:11.084Z,13.60
2019-03-31T19:48:00.171Z,13.60
2019-03-31T19:50:51.489Z,13.50
2019-03-31T19:53:40.650Z,13.50
2019-03-31T19:56:27.502Z,13.50
2019-03-31T19:59:05.762Z,13.50
2019-03-31T20:01:42.019Z,13.40
2019-03-31T20:04:33.504Z,13.40
2019-03-31T20:07:20.365Z,13.40
2019-03-31T20:09:58.761Z,13.30
2019-03-31T20:12:45.382Z,13.20
2019-03-31T20:15:25.000Z,13.10
2019-03-31T20:18:11.125Z,13.00
2019-03-31T20:21:03.765Z,13.00
2019-03-31T20:23:48.412Z,13.10
2019-03-31T20:26:28.171Z,13.10
2019-03-31T20:29:07.680Z,13.10
2019-03-31T20:31:55.026Z,13.10
2019-03-31T20:34:43.043Z,13.10
2019-03-31T20:37:31.930Z,12.90
2019-03-31T20:40:22.793Z,12.90
2019-03-31T20:43:07.903Z,13.00
2019-03-31T20:45:36.748Z,12.90
2019-03-31T20:48:05.667Z,13.00
2019-03-31T20:50:34.501Z,12.90
2019-03-31T20:53:03.365Z,12.90
2019-03-31T20:55:32.263Z,13.00
2019-03-31T20:58:01.093Z,12.90
2019-03-31T21:00:29.975Z,12.80
2019-03-31T21:02:58.788Z,12.70
2019-03-31T21:05:27.615Z,12.70
2019-03-31T21:07:56.465Z,12.70
2019-03-31T21:10:25.294Z,12.70
2019-03-31T21:12:54.210Z,12.70
2019-03-31T21:15:23.150Z,12.70
2019-03-31T21:17:51.977Z,12.60
2019-03-31T21:20:20.797Z,12.60
2019-03-31T21:22:49.711Z,12.60
2019-03-31T21:25:18.628Z,12.50
2019-03-31T21:27:47.524Z,12.50
2019-03-31T21:30:16.736Z,12.50
2019-03-31T21:32:45.577Z,12.50
2019-03-31T21:35:14.469Z,12.40
2019-03-31T21:37:43.482Z,12.40
2019-03-31T21:40:12.481Z,12.40
2019-03-31T21:42:41.428Z,12.50
2019-03-31T21:45:10.951Z,12.50
2019-03-31T21:47:39.863Z,12.50
2019-03-31T21:50:08.782Z,12.40
2019-03-31T21:52:37.739Z,12.40
2019-03-31T21:55:07.061Z,12.40
2019-03-31T21:57:36.042Z,12.30
2019-03-31T22:00:07.790Z,12.30
2019-03-31T22:02:36.910Z,12.30
2019-03-31T22:05:07.009Z,12.20
2019-03-31T22:07:36.023Z,12.10
2019-03-31T22:10:05.130Z,12.10
2019-03-31T22:12:33.977Z,12.20
2019-03-31T22:15:02.915Z,12.20
2019-03-31T22:17:31.733Z,12.10
2019-03-31T22:20:00.570Z,12.10
2019-03-31T22:22:29.413Z,12.20
2019-03-31T22:24:58.428Z,12.10
2019-03-31T22:27:27.310Z,12.10
2019-03-31T22:29:56.252Z,12.20
2019-03-31T22:32:25.094Z,12.20
2019-03-31T22:34:53.943Z,12.20
2019-03-31T22:37:22.765Z,12.10
2019-03-31T22:39:51.606Z,12.10
2019-03-31T22:42:20.455Z,12.00
2019-03-31T22:44:49.265Z,11.90
2019-03-31T22:47:18.303Z,12.00
2019-03-31T22:49:47.202Z,12.00
2019-03-31T22:52:16.039Z,11.90
2019-03-31T22:54:44.945Z,11.90
2019-03-31T22:57:13.892Z,11.80
2019-03-31T22:59:42.720Z,11.90
2019-03-31T23:02:11.728Z,12.00
2019-03-31T23:04:40.556Z,11.90
2019-03-31T23:07:09.420Z,11.80
2019-03-31T23:09:38.386Z,11.90
2019-03-31T23:12:07.311Z,12.00
2019-03-31T23:14:36.382Z,11.90
2019-03-31T23:17:05.584Z,11.70
2019-03-31T23:19:34.439Z,11.70
2019-03-31T23:22:03.549Z,11.70
2019-03-31T23:24:32.392Z,11.70
2019-03-31T23:27:01.331Z,11.70
2019-03-31T23:29:30.155Z,11.60
2019-03-31T23:31:59.011Z,11.50
2019-03-31T23:34:27.874Z,11.40
2019-03-31T23:36:56.693Z,11.50
2019-03-31T23:39:25.558Z,11.30
2019-03-31T23:41:54.401Z,11.30
2019-03-31T23:44:23.293Z,11.30
2019-03-31T23:46:52.320Z,11.20
2019-03-31T23:49:21.184Z,11.30
2019-03-31T23:51:49.993Z,11.30
2019-03-31T23:54:18.826Z,11.20
2019-03-31T23:56:47.732Z,11.20
2019-03-31T23:59:16.624Z,11.30
